• Join FlightAware (Why Join?)
  • Login
  • US Flag 
01:05PM EDT


 

Airport Tracker/Info


-or-


 

Live Flight TrackerFlight Track Log ✈ FSR411 ✈ 30-Jul-2013 ✈ KFCI - KCMI

Flight Track Log - Related Links

Times and Time Zones

All times are in EDT time to prevent confusion due to time zone crossing. See the FSR411 flight status page for this flight to view local times or setup timezone preferences in your user account.

Time Position Orientation Groundspeed Altitude Reporting Facility
EDT Latitude Longitude Course Direction KTS MPH feet Rate Location/Type
10:06AM 37.4167 -77.6000 260° West 202 232 2,500  Level Potomac TRACON
10:07AM 37.3969 -77.7356 260° West 256 295 7,700 3,060 Climbing Washington Center
10:08AM 37.3786 -77.8264 256° West 266 306 10,400 2,700 Climbing Washington Center
10:09AM 37.3600 -77.9303 257° West 285 328 13,200 2,820 Climbing Washington Center
10:10AM 37.3367 -78.0525 257° West 324 373 16,200 2,820 Climbing Washington Center
10:11AM 37.3131 -78.1797 257° West 360 414 18,800 1,860 Climbing Washington Center
10:12AM 37.2911 -78.3278 259° West 394 453 20,000 780 Climbing Washington Center
10:13AM 37.3233 -78.4594 287° West 385 443 20,400 1,380 Climbing Washington Center
10:14AM 37.3642 -78.5917 291° West 392 451 22,800 2,340 Climbing Washington Center
10:15AM 37.4044 -78.7267 291° West 405 466 25,100 2,220 Climbing Washington Center
10:16AM 37.4428 -78.8483 292° West 410 472 27,300 2,100 Climbing Washington Center
10:17AM 37.4828 -78.9864 290° West 415 478 29,300 1,920 Climbing Washington Center
10:18AM 37.5228 -79.1217 290° West 415 478 31,200 2,100 Climbing Washington Center
10:19AM 37.5683 -79.2731 291° West 420 483 33,600 2,100 Climbing Washington Center
10:20AM 37.6058 -79.4033 290° West 414 476 35,500 1,980 Climbing Washington Center
10:21AM 37.6433 -79.5311 290° West 401 461 37,700 1,860 Climbing Washington Center
10:22AM 37.6792 -79.6486 291° West 384 442 39,200 1,140 Climbing Washington Center
10:23AM 37.7108 -79.7631 289° West 368 423 40,000 360 Climbing Washington Center
10:24AM 37.7497 -79.8992 290° West 381 438 40,000  Level Washington Center
10:25AM 37.7867 -80.0300 290° West 381 438 40,000  Level Washington Center
10:27AM 37.8492 -80.2467 290° West 391 450 40,000  Level Indianapolis Center
10:28AM 37.8908 -80.3947 290° West 384 442 40,000  Level Indianapolis Center
10:29AM 37.9289 -80.5244 290° West 387 445 40,000  Level Indianapolis Center
10:30AM 37.9644 -80.6533 289° West 386 444 40,000  Level Indianapolis Center
10:31AM 38.0006 -80.7819 290° West 386 444 40,000  Level Indianapolis Center
10:32AM 38.0375 -80.9111 290° West 388 447 40,000  Level Indianapolis Center
10:33AM 38.0775 -81.0356 292° West 382 440 40,000  Level Indianapolis Center
10:34AM 38.1169 -81.1642 291° West 387 445 40,000  Level Indianapolis Center
10:35AM 38.1561 -81.2906 292° West 384 442 40,000  Level Indianapolis Center
10:37AM 38.2025 -81.4444 291° West 386 444 40,000  Level Indianapolis Center
10:38AM 38.2414 -81.5728 291° West 387 445 40,000  Level Indianapolis Center
10:39AM 38.2803 -81.7006 291° West 386 444 40,000  Level Indianapolis Center
10:40AM 38.3189 -81.8292 291° West 387 445 40,000  Level Indianapolis Center
10:41AM 38.3575 -81.9569 291° West 385 443 40,000  Level Indianapolis Center
10:42AM 38.3969 -82.0878 291° West 391 450 40,000  Level Indianapolis Center
10:43AM 38.4353 -82.2153 291° West 388 447 40,000  Level Indianapolis Center
10:44AM 38.4725 -82.3436 290° West 384 442 40,000  Level Indianapolis Center
10:45AM 38.5161 -82.4911 291° West 388 447 40,000  Level Indianapolis Center
10:46AM 38.5528 -82.6189 290° West 385 443 40,000  Level Indianapolis Center
10:47AM 38.5911 -82.7458 291° West 383 441 40,000  Level Indianapolis Center
10:48AM 38.6339 -82.8961 290° West 385 443 40,000  Level Indianapolis Center
10:49AM 38.6678 -83.0119 291° West 384 442 40,000  Level Indianapolis Center
10:50AM 38.7036 -83.1394 290° West 383 441 40,000  Level Indianapolis Center
10:51AM 38.7442 -83.2808 290° West 386 444 40,000  Level Indianapolis Center
10:52AM 38.7806 -83.4078 290° West 384 442 40,000  Level Indianapolis Center
10:53AM 38.8172 -83.5369 290° West 382 440 40,000  Level Indianapolis Center
10:54AM 38.8533 -83.6661 290° West 379 436 40,000  Level Indianapolis Center
10:55AM 38.8956 -83.8158 290° West 378 435 40,000 -300 Level Indianapolis Center
10:56AM 38.9322 -83.9447 290° West 379 436 39,400 -780 Descending Indianapolis Center
10:57AM 38.9672 -84.0769 289° West 384 442 38,400 -1,020 Descending Indianapolis Center
10:58AM 39.0136 -84.2008 296° West 382 440 37,400 -1,020 Descending Indianapolis Center
10:59AM 39.0775 -84.3158 306° West 389 448 36,300 -1,020 Descending Indianapolis Center
11:00AM 39.1408 -84.4308 305° West 389 448 35,300 -1,020 Descending Indianapolis Center
11:01AM 39.2047 -84.5486 305° West 399 459 34,300 -1,080 Descending Indianapolis Center
11:02AM 39.2678 -84.6708 304° West 404 465 33,200 -1,020 Descending Indianapolis Center
11:03AM 39.3322 -84.7922 304° West 404 465 32,200 -600 Descending Indianapolis Center
11:04AM 39.3797 -84.9386 293° West 404 465 32,000 -120 Descending Indianapolis Center
11:05AM 39.4083 -85.0831 284° West 413 475 32,000  Level Indianapolis Center
11:06AM 39.4394 -85.2264 286° West 415 478 32,000  Level Indianapolis Center
11:07AM 39.4692 -85.3683 285° West 412 474 32,000  Level Indianapolis Center
11:08AM 39.5050 -85.5428 285° West 419 482 32,000  Level Indianapolis Center
11:10AM 39.5353 -85.6894 285° West 423 487 32,000 -300 Level Indianapolis Center
11:11AM 39.5664 -85.8361 285° West 424 488 31,400 -960 Descending Indianapolis Center
11:12AM 39.5969 -85.9847 285° West 426 490 30,100 -1,500 Descending Indianapolis Center
11:13AM 39.6264 -86.1325 285° West 424 488 28,300 -1,800 Descending Indianapolis Center
11:14AM 39.6567 -86.2867 284° West 431 496 26,500 -1,800 Descending Indianapolis Center
11:15AM 39.6892 -86.4458 285° West 441 507 24,700 -1,380 Descending Indianapolis Center
11:16AM 39.7183 -86.5903 285° West 418 481 23,700 -840 Descending Indianapolis Center
11:17AM 39.7472 -86.7350 285° West 414 476 23,000 -600 Descending Indianapolis Center
11:18AM 39.7803 -86.9047 284° West 407 468 22,500 -1,320 Descending Indianapolis Center
11:19AM 39.8061 -87.0356 284° West 379 436 20,300 -2,280 Descending Indianapolis Center
11:20AM 39.8308 -87.1692 284° West 380 437 17,900 -2,220 Descending Indianapolis Center
11:21AM 39.8567 -87.3036 284° West 383 441 15,800 -2,400 Descending Indianapolis Center
11:22AM 39.8961 -87.5128 284° West 368 423 11,800 -2,400 Descending Chicago Center
11:23AM 39.9056 -87.5600 285° West 363 418 11,000 -540 Descending Indianapolis Center
11:24AM 39.9283 -87.6881 283° West 308 354 11,000 -420 Level Indianapolis Center
11:25AM 39.9617 -87.7828 295° West 293 337 10,200 -1,140 Descending Indianapolis Center
11:26AM 40.0067 -87.8728 303° West 295 339 8,700 -1,380 Descending Indianapolis Center
11:27AM 40.0231 -87.9092 300° West 292 336 8,100 -1,440 Descending Chicago Center
11:28AM 40.0725 -88.0092 303° West 278 320 6,500 -1,500 Descending Chicago Center
11:29AM 40.1078 -88.0878 300° West 271 312 5,100 -1,140 Descending Chicago Center
11:30AM 40.1511 -88.1797 302° West 267 307 4,200 -900 Descending Chicago Center
11:32AM 40.0333 -88.2667 213° Southwest  Level FlightAware Approximate
11:39AM 40.0388 -88.2778 213° Southwest  Level Estimated
11:40AM 40.0388 -88.2778 213° Southwest  Level Estimated
11:41AM 40.0388 -88.2778 213° Southwest  Level Estimated